Terminal Aerodrome Forecast
Issued by NWS

Home | Current Version | Previous Version | Text Only | Print | Product List | Glossary On
Versions: 1 2 3 4 5 6 7 8 9 10 11 12 13 14 15 16
000
FTUS46 KOTX 271120
TAFSFF
TAF
KSFF 271120Z 2712/2812 VRB02KT P6SM FEW100 SCT250
     FM272200 31005KT P6SM VCSH SCT070 BKN100
     FM280500 04003KT P6SM FEW100 FEW250=

USA.gov is the U.S. government's official web portal to all federal, state and local government web resources and services.